Time;durP1;ratioP1;P1;durP2;ratioP2;P2;SDS_P1;SDS_P2;PMS_P1;PMS_P2;Temp;Humidity;BMP_temperature;BMP_pressure;BME280_temperature;BME280_humidity;BME280_pressure;Samples;Min_cycle;Max_cycle;Signal;HPM_P1;HPM_P2
2022/05/25 04:00:17;;;;;;;2.25;1.38;;;17.80;87.00;;;;;;5088516;28;20047;-64
2022/05/25 04:02:46;;;;;;;2.65;1.55;;;17.80;87.00;;;;;;5091012;28;20028;-64
2022/05/25 05:44:38;;;;;;;1.17;0.90;;;17.60;87.60;;;;;;5091882;28;20038;-63
2022/05/25 05:47:07;;;;;;;1.45;1.10;;;17.70;87.60;;;;;;5090611;28;20039;-64
2022/05/25 05:49:34;;;;;;;0.85;0.80;;;17.70;87.50;;;;;;5111458;28;20024;-63
2022/05/25 05:52:00;;;;;;;3.95;1.20;;;17.70;87.50;;;;;;5104519;27;20022;-63
2022/05/25 05:54:26;;;;;;;2.75;1.10;;;17.70;87.50;;;;;;5112952;27;20023;-63
2022/05/25 05:56:52;;;;;;;3.65;1.20;;;17.70;87.40;;;;;;5131539;27;20034;-63
2022/05/25 05:59:17;;;;;;;1.17;1.02;;;17.70;87.40;;;;;;5131487;27;20027;-63
2022/05/25 06:01:45;;;;;;;1.60;0.98;;;17.70;87.40;;;;;;5131498;27;20019;-63
2022/05/25 06:04:11;;;;;;;1.20;1.10;;;17.70;87.60;;;;;;5132387;27;20037;-63
2022/05/25 06:06:36;;;;;;;0.90;0.90;;;17.70;87.40;;;;;;5132018;27;20027;-63
2022/05/25 06:09:02;;;;;;;2.92;0.98;;;17.70;87.40;;;;;;5105762;27;20024;-63
2022/05/25 06:11:28;;;;;;;4.28;1.05;;;17.70;87.40;;;;;;5088820;28;20024;-64
2022/05/25 06:13:53;;;;;;;2.60;1.10;;;17.70;87.40;;;;;;5090921;28;20036;-63
2022/05/25 06:21:47;;;;;;;1.20;1.00;;;17.70;87.50;;;;;;5090231;28;20047;-64
2022/05/25 06:24:13;;;;;;;3.22;1.25;;;17.70;87.50;;;;;;5088958;28;20032;-63
2022/05/25 06:26:38;;;;;;;1.70;1.20;;;17.70;87.50;;;;;;5090356;28;20407;-63
2022/05/25 06:29:04;;;;;;;3.05;1.58;;;17.70;87.60;;;;;;5090896;28;20046;-63
2022/05/25 06:31:31;;;;;;;1.45;1.20;;;17.70;87.60;;;;;;5090740;28;20020;-63
2022/05/25 06:33:57;;;;;;;2.03;1.20;;;17.70;87.60;;;;;;5092401;28;20034;-63
2022/05/25 06:36:25;;;;;;;3.83;1.27;;;17.70;87.60;;;;;;5089152;28;20020;-64
2022/05/25 06:38:52;;;;;;;1.85;1.10;;;17.70;87.60;;;;;;5094246;28;20468;-63
2022/05/25 06:41:18;;;;;;;2.97;1.80;;;17.70;87.70;;;;;;5111792;28;20106;-63
2022/05/25 06:43:44;;;;;;;1.45;1.30;;;17.70;87.70;;;;;;5111865;28;20052;-63
2022/05/25 06:46:11;;;;;;;1.85;1.60;;;17.70;87.70;;;;;;5110115;28;20078;-64
2022/05/25 06:48:38;;;;;;;2.05;1.30;;;17.70;87.70;;;;;;5108791;28;20026;-64
2022/05/25 06:51:18;;;;;;;1.40;1.30;;;17.70;87.70;;;;;;5111490;28;20460;-64
2022/05/25 06:53:44;;;;;;;2.17;1.75;;;17.70;87.70;;;;;;5104591;28;20036;-64
2022/05/25 06:56:11;;;;;;;4.88;1.70;;;17.70;87.70;;;;;;5090961;28;20048;-63
2022/05/25 06:58:37;;;;;;;2.60;1.42;;;17.70;87.70;;;;;;5090422;28;20020;-64
2022/05/25 07:01:03;;;;;;;1.45;1.30;;;17.70;87.70;;;;;;5089944;28;20070;-64
2022/05/25 07:03:30;;;;;;;1.80;1.45;;;17.70;87.80;;;;;;5091644;28;20107;-64
2022/05/25 07:05:57;;;;;;;2.35;1.50;;;17.70;87.90;;;;;;5090419;28;20026;-64
2022/05/25 07:08:23;;;;;;;1.33;1.23;;;17.70;87.90;;;;;;5090469;28;20126;-64
2022/05/25 07:10:49;;;;;;;3.30;1.55;;;17.70;87.90;;;;;;5090923;28;20050;-63
2022/05/25 07:13:17;;;;;;;1.98;1.50;;;17.70;87.90;;;;;;5090745;28;20028;-64
2022/05/25 07:15:43;;;;;;;8.30;1.88;;;17.80;88.10;;;;;;5090285;28;20016;-64
2022/05/25 07:18:09;;;;;;;6.18;1.90;;;17.70;88.10;;;;;;5090118;28;20561;-63
2022/05/25 07:20:35;;;;;;;4.53;1.90;;;17.70;88.10;;;;;;5094932;28;20107;-64
2022/05/25 07:43:40;;;;;;;2.92;2.00;;;17.80;88.40;;;;;;5035562;28;20037;-64
2022/05/25 11:05:56;;;;;;;2.72;1.45;;;18.30;85.00;;;;;;5071489;28;20048;-71
2022/05/25 11:08:54;;;;;;;2.90;1.40;;;18.30;85.00;;;;;;5069439;28;20046;-68
2022/05/25 11:11:45;;;;;;;2.50;1.20;;;18.30;85.70;;;;;;5009295;28;20033;-68
2022/05/25 11:14:37;;;;;;;2.20;1.25;;;18.30;84.40;;;;;;5069001;28;20032;-67
2022/05/25 11:17:30;;;;;;;2.15;1.42;;;18.30;84.90;;;;;;5070112;28;20036;-68
2022/05/25 11:20:01;;;;;;;3.95;1.20;;;18.30;85.10;;;;;;5066017;28;20546;-67
2022/05/25 11:22:31;;;;;;;1.90;1.25;;;18.30;85.60;;;;;;5069884;28;20024;-68
2022/05/25 11:25:11;;;;;;;2.58;1.10;;;18.30;85.80;;;;;;5070443;28;20021;-68
2022/05/25 11:27:49;;;;;;;1.67;1.23;;;18.30;85.90;;;;;;5069997;28;20020;-67
2022/05/25 11:30:22;;;;;;;2.05;1.10;;;18.40;86.00;;;;;;5069955;28;20028;-68
2022/05/25 11:33:12;;;;;;;1.40;1.20;;;18.40;86.00;;;;;;5069968;28;20441;-68
2022/05/25 11:35:51;;;;;;;1.92;0.80;;;18.40;86.00;;;;;;5070872;28;20085;-68
2022/05/25 11:38:39;;;;;;;2.15;0.90;;;18.40;86.00;;;;;;5099416;28;20027;-68
2022/05/25 11:41:32;;;;;;;1.63;1.13;;;18.40;86.00;;;;;;5069658;28;20070;-68
2022/05/25 11:44:31;;;;;;;1.77;1.42;;;18.40;86.10;;;;;;5068938;28;20075;-68
2022/05/25 11:47:24;;;;;;;1.30;1.02;;;18.40;86.00;;;;;;5070195;28;20032;-68
2022/05/25 11:50:11;;;;;;;4.18;1.35;;;18.40;85.70;;;;;;5069599;28;20032;-67
2022/05/25 11:53:12;;;;;;;3.45;1.08;;;18.40;85.00;;;;;;5063677;28;20032;-67
2022/05/25 11:55:52;;;;;;;1.85;0.98;;;18.40;85.60;;;;;;5069117;28;20056;-67
2022/05/25 15:00:54;;;;;;;2.20;0.82;;;18.40;82.90;;;;;;5070423;28;20118;-66
2022/05/25 15:03:38;;;;;;;1.25;0.80;;;18.40;82.70;;;;;;5069914;28;20023;-66
2022/05/25 15:06:13;;;;;;;1.88;0.82;;;18.40;82.20;;;;;;5071807;28;20112;-66
2022/05/25 15:09:30;;;;;;;4.47;0.90;;;18.40;80.90;;;;;;5072550;28;20021;-65
2022/05/25 15:18:30;;;;;;;2.15;0.80;;;18.40;81.00;;;;;;5025947;28;20040;-66
2022/05/25 15:21:11;;;;;;;1.42;0.90;;;18.40;80.60;;;;;;5026699;28;20045;-66
2022/05/25 15:23:44;;;;;;;3.42;0.90;;;18.40;81.00;;;;;;5027069;28;20103;-66
2022/05/25 15:26:31;;;;;;;2.78;0.90;;;18.30;81.20;;;;;;5026921;28;20049;-66
2022/05/25 15:29:19;;;;;;;1.58;1.10;;;18.30;81.30;;;;;;5024606;28;20095;-66
2022/05/25 15:31:45;;;;;;;3.45;1.00;;;18.30;80.90;;;;;;5006789;28;20070;-67
2022/05/25 15:34:11;;;;;;;1.17;0.80;;;18.40;80.80;;;;;;5006643;28;20376;-67
2022/05/25 15:36:38;;;;;;;0.63;0.63;;;18.40;80.30;;;;;;5006077;28;20034;-66
2022/05/25 15:39:04;;;;;;;3.08;1.00;;;18.40;79.90;;;;;;5006344;28;20169;-67
2022/05/25 15:41:30;;;;;;;1.10;0.80;;;18.40;79.30;;;;;;5007229;28;20038;-66
2022/05/25 15:43:55;;;;;;;0.70;0.70;;;18.40;78.80;;;;;;5006493;28;20455;-66
2022/05/25 15:46:23;;;;;;;0.90;0.73;;;18.40;78.40;;;;;;5025962;28;20041;-66
2022/05/25 15:48:54;;;;;;;3.58;1.48;;;18.40;78.50;;;;;;5026063;28;20028;-67
2022/05/25 15:51:25;;;;;;;0.80;0.80;;;18.40;78.10;;;;;;5049945;28;20040;-66
2022/05/25 15:53:50;;;;;;;1.60;1.02;;;18.30;78.20;;;;;;5078477;28;20028;-66
2022/05/25 15:56:17;;;;;;;3.17;0.90;;;18.40;77.50;;;;;;5069286;28;20064;-66
2022/05/25 15:58:44;;;;;;;2.15;0.90;;;18.40;77.00;;;;;;5072328;28;20115;-66
2022/05/25 16:01:12;;;;;;;2.40;0.70;;;18.40;76.40;;;;;;5072482;28;20076;-66
2022/05/25 16:04:01;;;;;;;3.65;1.05;;;18.40;77.10;;;;;;5073141;28;20031;-66
2022/05/25 16:06:28;;;;;;;1.10;0.90;;;18.40;76.30;;;;;;5073007;28;20028;-66
2022/05/25 16:09:19;;;;;;;2.10;0.80;;;18.40;76.70;;;;;;5072582;28;20052;-66
2022/05/25 16:11:51;;;;;;;1.50;0.70;;;18.40;76.50;;;;;;5082929;28;20024;-68
2022/05/25 16:14:19;;;;;;;1.17;0.80;;;18.40;76.60;;;;;;5083892;28;20026;-67
2022/05/25 16:16:47;;;;;;;1.42;0.88;;;18.40;76.70;;;;;;5084645;28;20028;-67
2022/05/25 16:19:14;;;;;;;3.72;1.00;;;18.40;77.00;;;;;;5083758;28;20028;-66
2022/05/25 16:21:41;;;;;;;1.17;0.80;;;18.40;77.30;;;;;;5077423;28;20063;-66
2022/05/25 16:24:08;;;;;;;1.80;1.00;;;18.40;76.90;;;;;;5077570;28;20062;-67
2022/05/25 16:26:38;;;;;;;6.00;1.00;;;18.40;76.80;;;;;;5084334;28;20465;-66
2022/05/25 16:29:05;;;;;;;;;;;18.30;77.20;;;;;;5078759;28;20475;-66
2022/05/25 16:31:32;;;;;;;1.00;0.70;;;18.30;77.60;;;;;;5079144;28;19912;-66
2022/05/25 16:34:01;;;;;;;0.70;0.70;;;18.30;77.50;;;;;;5081297;28;20072;-67
2022/05/25 16:36:27;;;;;;;5.35;0.68;;;18.30;77.20;;;;;;5090006;28;20123;-66
2022/05/25 16:38:52;;;;;;;0.82;0.70;;;18.30;76.90;;;;;;5084982;28;20103;-68
2022/05/25 16:41:21;;;;;;;5.47;0.80;;;18.30;76.90;;;;;;5082420;28;20025;-66
2022/05/25 16:43:47;;;;;;;1.60;1.00;;;18.30;76.70;;;;;;5078597;28;20496;-66
2022/05/25 16:46:12;;;;;;;2.83;0.73;;;18.30;77.20;;;;;;5084910;28;20080;-66
2022/05/25 16:48:38;;;;;;;1.38;0.90;;;18.30;77.60;;;;;;5096783;28;20388;-66
2022/05/25 16:51:05;;;;;;;7.82;0.90;;;18.30;77.90;;;;;;5081163;28;20066;-66
2022/05/25 16:53:34;;;;;;;1.77;1.00;;;18.30;78.60;;;;;;5078545;28;20052;-66
2022/05/25 16:56:04;;;;;;;2.28;1.00;;;18.20;78.90;;;;;;5074860;28;20024;-67
2022/05/25 16:58:29;;;;;;;2.38;1.10;;;18.20;78.50;;;;;;5079752;28;20039;-66
2022/05/25 17:00:55;;;;;;;1.85;0.80;;;18.20;78.70;;;;;;5077915;28;20033;-67
2022/05/25 17:03:21;;;;;;;5.07;0.90;;;18.20;78.90;;;;;;5074838;28;20028;-66
2022/05/25 17:05:46;;;;;;;6.13;1.00;;;18.20;79.20;;;;;;5079728;28;20566;-67
2022/05/25 17:08:12;;;;;;;1.02;0.77;;;18.20;79.20;;;;;;5084219;28;20024;-66
2022/05/25 17:10:37;;;;;;;1.50;1.40;;;18.20;79.20;;;;;;5076627;28;20028;-66
2022/05/25 17:13:03;;;;;;;0.98;0.80;;;18.20;79.00;;;;;;5082139;28;20485;-66
2022/05/25 17:15:29;;;;;;;6.68;1.08;;;18.20;78.80;;;;;;5073170;28;20021;-66
2022/05/25 17:17:54;;;;;;;3.75;0.90;;;18.20;79.80;;;;;;5075692;28;20028;-67
2022/05/25 17:20:32;;;;;;;3.30;0.90;;;18.20;79.20;;;;;;5082121;28;20027;-66
2022/05/25 17:23:07;;;;;;;1.30;1.00;;;18.20;79.50;;;;;;5079249;28;20025;-66
2022/05/25 17:25:33;;;;;;;2.72;1.17;;;18.20;79.40;;;;;;5082385;28;20028;-66
2022/05/25 17:27:59;;;;;;;2.22;0.95;;;18.20;79.40;;;;;;5080438;28;20115;-66
2022/05/25 17:30:26;;;;;;;0.82;0.80;;;18.20;79.40;;;;;;5078335;28;20107;-66
2022/05/25 17:32:51;;;;;;;0.93;0.90;;;18.20;79.50;;;;;;5082728;28;20043;-66
2022/05/25 17:35:17;;;;;;;0.77;0.77;;;18.10;79.50;;;;;;5079726;28;20036;-66
2022/05/25 17:43:13;;;;;;;0.70;0.70;;;18.20;80.30;;;;;;5072851;28;20543;-66
2022/05/25 17:45:40;;;;;;;1.35;0.90;;;18.10;80.60;;;;;;5073843;28;20062;-66
2022/05/25 17:48:07;;;;;;;1.33;1.00;;;18.10;80.70;;;;;;5077961;28;20066;-66
2022/05/25 17:50:35;;;;;;;1.85;1.02;;;18.10;80.70;;;;;;5075090;28;20028;-66
2022/05/25 17:53:03;;;;;;;1.05;0.93;;;18.10;80.80;;;;;;5075961;28;20499;-66
2022/05/25 17:55:28;;;;;;;1.20;0.82;;;18.10;80.80;;;;;;5074749;28;20053;-67
2022/05/25 17:57:54;;;;;;;0.98;0.80;;;18.10;80.80;;;;;;5082262;28;20024;-66
2022/05/25 18:00:38;;;;;;;1.30;0.93;;;18.10;80.80;;;;;;5090720;28;20056;-66
2022/05/25 18:03:20;;;;;;;2.83;1.08;;;18.00;80.90;;;;;;5094500;28;20035;-66
2022/05/25 18:06:15;;;;;;;1.38;0.95;;;18.00;81.20;;;;;;5085700;28;20032;-66
2022/05/25 18:08:42;;;;;;;1.08;0.90;;;18.00;81.50;;;;;;5077155;28;20543;-66
2022/05/25 18:11:08;;;;;;;1.17;0.95;;;18.00;81.40;;;;;;5083128;28;20034;-66
2022/05/25 18:13:34;;;;;;;2.17;1.00;;;18.00;81.40;;;;;;5081325;28;20028;-66
2022/05/25 18:16:06;;;;;;;1.65;1.27;;;18.00;81.40;;;;;;5085748;28;20440;-66
2022/05/25 18:18:34;;;;;;;1.17;0.90;;;18.00;81.70;;;;;;5072465;28;20058;-66
2022/05/25 18:21:00;;;;;;;1.30;1.20;;;18.00;81.80;;;;;;5071067;28;20044;-66
2022/05/25 18:23:25;;;;;;;1.20;1.10;;;18.00;81.80;;;;;;5072250;28;20032;-66
2022/05/25 18:25:51;;;;;;;4.97;1.10;;;18.00;82.00;;;;;;5081500;28;20028;-67
2022/05/25 18:28:19;;;;;;;1.10;0.98;;;18.10;82.10;;;;;;5072005;28;20028;-66
2022/05/25 18:30:46;;;;;;;2.25;1.45;;;18.10;82.10;;;;;;5081107;28;20039;-66
2022/05/25 18:33:13;;;;;;;0.88;0.70;;;18.10;81.80;;;;;;5064189;28;20044;-66
2022/05/25 18:35:39;;;;;;;1.90;0.90;;;18.00;80.50;;;;;;5078850;28;20614;-66
2022/05/25 18:38:08;;;;;;;3.13;1.00;;;18.00;80.20;;;;;;5079330;28;20103;-66
2022/05/25 18:40:38;;;;;;;3.90;1.00;;;18.00;79.90;;;;;;5085671;28;20462;-66
2022/05/25 18:43:04;;;;;;;1.48;0.80;;;18.00;79.10;;;;;;5076038;28;20029;-66
2022/05/25 18:45:30;;;;;;;3.40;0.90;;;18.00;78.60;;;;;;5082957;28;20040;-66
2022/05/25 18:47:56;;;;;;;2.20;0.80;;;18.00;78.70;;;;;;5077135;28;20355;-66
2022/05/25 18:50:28;;;;;;;3.50;0.85;;;18.00;78.40;;;;;;5069308;28;20032;-67
2022/05/25 18:52:57;;;;;;;1.00;0.88;;;18.00;77.90;;;;;;5078072;28;20051;-66
2022/05/25 18:55:24;;;;;;;1.65;0.82;;;18.00;77.40;;;;;;5076231;28;20396;-66
2022/05/25 18:57:50;;;;;;;2.55;0.98;;;18.00;77.10;;;;;;5088450;28;20039;-66
2022/05/25 19:07:08;;;;;;;1.83;1.00;;;17.90;76.90;;;;;;5011837;28;20104;-67
2022/05/25 20:14:35;;;;;;;0.60;0.60;;;17.90;79.10;;;;;;4934723;29;20147;-69
2022/05/25 20:34:30;;;;;;;2.50;0.90;;;18.00;79.00;;;;;;5012210;28;20037;-69
2022/05/25 20:44:32;;;;;;;2.08;0.98;;;17.90;78.90;;;;;;4956102;28;20034;-69
2022/05/25 22:08:09;;;;;;;3.88;2.08;;;17.80;78.10;;;;;;4957618;28;20396;-68
